Time;durP1;ratioP1;P1;durP2;ratioP2;P2;SDS_P1;SDS_P2;PMS_P1;PMS_P2;Temp;Humidity;BMP_temperature;BMP_pressure;BME280_temperature;BME280_humidity;BME280_pressure;Samples;Min_cycle;Max_cycle;Signal;HPM_P1;HPM_P2
2022/11/05 00:10:02;;;;;;;;;17.60;15.60;;;;;9.98;64.87;101198.56;4995222;28;45721;-57
2022/11/05 00:17:56;;;;;;;;;18.40;16.40;;;;;10.26;65.46;101247.97;4995972;28;45420;-58
2022/11/05 00:20:21;;;;;;;;;17.75;15.50;;;;;10.25;65.24;101245.44;4994566;28;46904;-58
2022/11/05 00:25:31;;;;;;;;;16.60;12.60;;;;;10.10;66.04;101245.50;4995974;28;45358;-55
2022/11/05 00:28:00;;;;;;;;;11.50;11.25;;;;;10.19;65.50;101243.47;4996310;28;45350;-57
2022/11/05 00:30:25;;;;;;;;;16.20;14.80;;;;;10.25;65.72;101249.00;4996070;28;47151;-58
2022/11/05 00:32:51;;;;;;;;;13.50;11.00;;;;;9.98;65.41;101198.56;5007396;28;45366;-57
2022/11/05 00:35:18;;;;;;;;;14.75;10.50;;;;;10.29;65.79;101246.72;4987611;28;45311;-57
2022/11/05 00:37:44;;;;;;;;;13.60;11.20;;;;;10.29;65.47;101239.34;5014190;28;45436;-56
2022/11/05 00:40:10;;;;;;;;;12.50;9.75;;;;;10.24;65.51;101251.97;5013200;28;46349;-56
2022/11/05 00:45:20;;;;;;;;;16.60;12.60;;;;;10.10;64.91;101231.78;5015946;28;45486;-58
2022/11/05 00:50:29;;;;;;;;;43.00;37.20;;;;;10.29;65.29;101265.91;5013913;28;45387;-58
2022/11/05 00:52:56;;;;;;;;;14.00;11.00;;;;;10.21;64.75;101266.06;5014096;28;45564;-58
2022/11/05 00:55:25;;;;;;;;;11.20;9.40;;;;;10.06;65.94;101266.13;5015353;28;45421;-57
2022/11/05 00:57:51;;;;;;;;;11.40;10.40;;;;;9.98;65.09;101242.44;5014270;28;45387;-59
2022/11/05 01:00:16;;;;;;;;;14.25;8.25;;;;;9.92;65.98;101270.63;5013920;28;45241;-56
2022/11/05 01:02:42;;;;;;;;;12.25;11.00;;;;;9.81;65.81;101236.38;5015255;28;45931;-58
2022/11/05 01:05:08;;;;;;;;;14.50;10.50;;;;;10.05;65.34;101259.81;5015154;28;45437;-58
2022/11/05 01:07:34;;;;;;;;;13.75;10.00;;;;;10.02;65.58;101243.72;5015366;28;45504;-57
2022/11/05 01:09:59;;;;;;;;;17.60;12.20;;;;;10.04;64.99;101247.97;5013843;28;45783;-56
2022/11/05 01:12:25;;;;;;;;;14.50;13.50;;;;;9.88;65.84;101242.78;5013815;28;45476;-58
2022/11/05 01:14:50;;;;;;;;;10.25;8.75;;;;;9.93;66.33;101255.88;5014462;28;45451;-56
2022/11/05 01:17:16;;;;;;;;;10.50;10.00;;;;;10.02;66.01;101255.56;5015415;28;45419;-56
2022/11/05 01:19:42;;;;;;;;;13.75;10.00;;;;;10.08;65.99;101248.44;5014731;28;46482;-57
2022/11/05 01:22:07;;;;;;;;;13.50;10.00;;;;;10.05;65.11;101243.34;5014977;28;45361;-57
2022/11/05 01:24:32;;;;;;;;;17.75;15.00;;;;;10.00;65.62;101240.34;5014892;28;45508;-56
2022/11/05 01:26:58;;;;;;;;;13.50;12.00;;;;;10.05;65.43;101254.31;5015076;28;45519;-57
2022/11/05 01:29:24;;;;;;;;;15.75;15.00;;;;;10.00;65.76;101240.34;5014481;28;46276;-58
2022/11/05 01:31:49;;;;;;;;;18.00;17.75;;;;;9.80;65.95;101199.88;5011996;28;45378;-58
2022/11/05 01:34:15;;;;;;;;;27.00;24.50;;;;;10.11;65.83;101247.19;4994535;28;45470;-56
2022/11/05 01:36:40;;;;;;;;;9.75;9.75;;;;;10.07;65.60;101245.88;4995220;28;45310;-57
2022/11/05 01:39:06;;;;;;;;;16.00;12.25;;;;;10.08;65.60;101251.16;4994831;28;45404;-59
2022/11/05 01:41:31;;;;;;;;;10.50;9.75;;;;;10.11;64.82;101258.16;4994972;28;45262;-57
2022/11/05 01:44:00;;;;;;;;;9.00;8.00;;;;;9.86;64.82;101215.53;4994851;28;45401;-57
2022/11/05 01:46:37;;;;;;;;;10.40;10.40;;;;;9.91;65.34;101220.44;4993656;28;46000;-57
2022/11/05 01:49:09;;;;;;;;;18.40;15.00;;;;;9.99;65.18;101239.47;4994469;28;45630;-57
2022/11/05 01:51:34;;;;;;;;;12.80;11.00;;;;;10.08;65.50;101253.91;4977367;28;45438;-56
2022/11/05 01:54:05;;;;;;;;;10.00;9.00;;;;;10.12;65.49;101262.59;4994822;28;45746;-57
2022/11/05 01:56:40;;;;;;;;;9.80;8.40;;;;;9.82;65.34;101225.19;4994953;28;45303;-57
2022/11/05 01:59:27;;;;;;;;;11.00;9.60;;;;;10.03;64.75;101260.00;4994463;28;45418;-59
2022/11/05 02:01:52;;;;;;;;;13.40;12.40;;;;;10.12;64.95;101266.22;4993121;28;45364;-56
2022/11/05 02:04:34;;;;;;;;;10.00;10.00;;;;;9.96;65.20;101239.03;4993210;28;45420;-57
2022/11/05 02:06:59;;;;;;;;;10.00;8.80;;;;;9.30;64.75;101137.59;4977702;28;45445;-58
2022/11/05 02:09:47;;;;;;;;;9.50;9.50;;;;;10.09;64.54;101255.59;4994305;28;46414;-57
2022/11/05 02:12:12;;;;;;;;;10.60;9.00;;;;;9.52;65.36;101167.75;4993334;28;45352;-56
2022/11/05 02:14:38;;;;;;;;;10.50;9.50;;;;;10.04;64.87;101253.47;4993329;28;45428;-57
2022/11/05 02:17:10;;;;;;;;;10.00;10.00;;;;;10.01;65.15;101253.88;4994800;28;45658;-57
2022/11/05 02:20:00;;;;;;;;;11.20;9.40;;;;;9.86;65.26;101231.13;4993004;28;45771;-58
2022/11/05 02:22:51;;;;;;;;;11.40;9.40;;;;;10.01;65.76;101255.75;4974130;28;45920;-57
2022/11/05 02:25:25;;;;;;;;;11.40;9.60;;;;;10.03;65.06;101249.03;5012059;28;45358;-57
2022/11/05 02:28:36;;;;;;;;;9.20;8.80;;;;;10.05;64.95;101251.59;5016357;28;45427;-57
2022/11/05 02:31:16;;;;;;;;;9.60;8.60;;;;;10.06;65.50;101264.25;5017448;28;45429;-58
2022/11/05 02:34:34;;;;;;;;;9.20;7.60;;;;;10.04;65.26;101263.59;5017372;28;45287;-57
2022/11/05 02:37:09;;;;;;;;;7.20;7.20;;;;;9.98;65.63;101264.38;4994468;28;45302;-58
2022/11/05 02:40:11;;;;;;;;;5.00;5.00;;;;;9.98;64.80;101275.34;5000544;28;45334;-58
2022/11/05 02:43:01;;;;;;;;;8.40;8.00;;;;;9.92;65.44;101276.97;5017753;28;46691;-58
2022/11/05 02:45:41;;;;;;;;;6.00;6.00;;;;;9.87;66.04;101271.22;5017053;28;45445;-56
2022/11/05 02:48:18;;;;;;;;;10.20;8.40;;;;;9.53;65.80;101216.03;5017437;28;45314;-57
2022/11/05 02:51:18;;;;;;;;;6.80;6.80;;;;;9.82;65.67;101260.00;5000781;28;45230;-59
2022/11/05 02:53:47;;;;;;;;;10.40;8.20;;;;;9.89;65.18;101261.75;4999311;28;47381;-56
2022/11/05 02:56:17;;;;;;;;;8.40;8.40;;;;;9.89;66.51;101260.91;4999354;28;45439;-58
2022/11/05 02:58:42;;;;;;;;;8.00;6.00;;;;;9.55;66.36;101211.19;5016181;28;45393;-58
2022/11/05 03:01:10;;;;;;;;;8.25;7.50;;;;;9.83;66.49;101254.28;4999089;28;45544;-58
2022/11/05 03:03:38;;;;;;;;;8.80;7.80;;;;;9.49;66.11;101184.56;5015870;28;46378;-57
2022/11/05 03:06:23;;;;;;;;;9.80;8.60;;;;;9.89;66.88;101248.03;5016013;28;45256;-58
2022/11/05 03:09:22;;;;;;;;;12.40;8.60;;;;;9.92;66.30;101246.78;5016996;28;45331;-57
2022/11/05 03:12:05;;;;;;;;;7.00;7.00;;;;;9.95;65.81;101248.31;5016031;28;45410;-57
2022/11/05 03:14:42;;;;;;;;;7.00;7.00;;;;;9.95;65.63;101249.16;5016894;28;45516;-56
2022/11/05 03:17:24;;;;;;;;;8.80;8.60;;;;;9.92;65.74;101243.22;5015680;28;45343;-58
2022/11/05 03:19:56;;;;;;;;;8.40;7.40;;;;;9.96;66.28;101248.13;5016828;28;45199;-56
2022/11/05 03:22:27;;;;;;;;;7.40;5.40;;;;;9.90;66.87;101238.78;5015891;28;45536;-58
2022/11/05 03:25:07;;;;;;;;;9.20;9.20;;;;;9.98;66.01;101247.94;4991296;28;46114;-58
2022/11/05 03:27:33;;;;;;;;;7.60;6.80;;;;;9.97;66.40;101247.06;5013764;28;45429;-58
2022/11/05 03:30:06;;;;;;;;;7.20;7.20;;;;;10.08;66.10;101247.59;4983341;28;45455;-57
2022/11/05 03:32:34;;;;;;;;;5.80;5.80;;;;;10.15;65.76;101240.28;5014321;28;45446;-57
2022/11/05 03:35:39;;;;;;;;;9.40;8.40;;;;;10.18;66.10;101248.09;4995513;28;46249;-57
2022/11/05 03:38:07;;;;;;;;;7.40;6.60;;;;;10.16;66.26;101240.06;4955039;28;45380;-58
2022/11/05 03:40:34;;;;;;;;;10.40;9.00;;;;;10.18;66.02;101245.34;4923264;28;45492;-58
2022/11/05 03:42:59;;;;;;;;;8.60;6.80;;;;;10.21;65.59;101255.94;4965443;28;46017;-57
2022/11/05 03:45:28;;;;;;;;;9.00;9.00;;;;;10.22;64.92;101248.56;4978686;28;45559;-58
2022/11/05 03:47:55;;;;;;;;;10.40;5.20;;;;;10.22;64.93;101240.31;4996737;28;45449;-57
2022/11/05 03:50:26;;;;;;;;;6.20;6.20;;;;;10.24;65.71;101235.50;4996734;28;45567;-58
2022/11/05 03:52:53;;;;;;;;;6.20;4.40;;;;;10.25;65.37;101232.53;4997110;28;45191;-58
2022/11/05 03:55:21;;;;;;;;;7.00;7.00;;;;;10.16;65.31;101218.13;4996431;28;45514;-57
2022/11/05 03:57:47;;;;;;;;;8.80;7.60;;;;;10.16;65.32;101220.84;4978533;28;45419;-58
2022/11/05 04:00:12;;;;;;;;;5.00;5.00;;;;;10.23;65.73;101236.53;4995396;28;45447;-57
2022/11/05 04:02:38;;;;;;;;;8.00;8.00;;;;;10.24;66.13;101239.09;4996635;28;45442;-57
2022/11/05 04:05:04;;;;;;;;;3.00;2.00;;;;;10.29;65.73;101247.56;4996149;28;46414;-58
2022/11/05 04:18:25;;;;;;;;;4.60;4.60;;;;;10.31;65.24;101242.72;4995277;28;45385;-57
2022/11/05 04:26:22;;;;;;;;;5.60;3.00;;;;;10.31;66.00;101242.72;4995518;28;45666;-57
2022/11/05 04:31:35;;;;;;;;;8.20;4.80;;;;;10.35;65.55;101256.06;4996137;28;45587;-58
2022/11/05 04:34:00;;;;;;;;;4.00;2.75;;;;;10.33;65.70;101259.00;5008383;28;45675;-57
2022/11/05 04:36:26;;;;;;;;;5.25;4.00;;;;;10.34;65.50;101257.94;5014067;28;46078;-56
2022/11/05 04:38:51;;;;;;;;;3.75;3.75;;;;;9.62;66.01;101148.25;5014184;28;45435;-57
2022/11/05 04:41:17;;;;;;;;;7.75;5.00;;;;;10.26;65.75;101267.16;5015784;28;45323;-58
2022/11/05 04:43:43;;;;;;;;;7.00;3.25;;;;;10.03;66.24;101256.38;5015852;28;45535;-57
2022/11/05 04:46:09;;;;;;;;;5.25;3.75;;;;;10.13;66.41;101264.28;5015344;28;45337;-57
2022/11/05 04:48:34;;;;;;;;;3.60;3.00;;;;;9.96;66.34;101236.28;4994390;28;45579;-57
2022/11/05 04:51:00;;;;;;;;;4.00;4.00;;;;;9.80;66.15;101209.97;5008139;28;45387;-57
2022/11/05 04:53:25;;;;;;;;;4.75;3.00;;;;;10.12;65.76;101260.72;5015361;28;45319;-57
2022/11/05 04:55:51;;;;;;;;;3.25;3.25;;;;;10.15;66.63;101246.59;5015200;28;46206;-57
2022/11/05 04:58:16;;;;;;;;;4.00;3.00;;;;;10.25;65.71;101259.16;5015367;28;45388;-58
2022/11/05 05:00:42;;;;;;;;;5.00;5.00;;;;;10.24;66.17;101261.03;5015397;28;45929;-57
2022/11/05 05:03:07;;;;;;;;;4.00;4.00;;;;;10.19;66.43;101249.78;5015341;28;45533;-57
2022/11/05 05:05:33;;;;;;;;;5.00;5.00;;;;;10.04;65.77;101225.22;5014878;28;46242;-58
2022/11/05 05:08:02;;;;;;;;;3.00;3.00;;;;;9.94;66.39;101211.81;5015024;28;45356;-58
2022/11/05 05:10:27;;;;;;;;;7.40;4.40;;;;;10.17;66.23;101246.41;5014913;28;45419;-57
2022/11/05 05:12:53;;;;;;;;;2.25;2.25;;;;;10.31;65.97;101269.34;5015539;28;45341;-59
2022/11/05 05:15:18;;;;;;;;;5.00;4.00;;;;;10.36;65.26;101282.47;5014646;28;46761;-57
2022/11/05 05:17:49;;;;;;;;;6.50;3.50;;;;;10.30;65.32;101278.63;5015271;28;45420;-58
2022/11/05 05:22:58;;;;;;;;;3.60;3.60;;;;;10.37;65.17;101290.50;5013992;28;45938;-58
2022/11/05 05:25:24;;;;;;;;;9.50;7.00;;;;;10.29;65.78;101277.75;5014395;28;46919;-57
2022/11/05 05:27:49;;;;;;;;;3.25;3.00;;;;;10.18;65.25;101264.56;5014999;28;45356;-57
2022/11/05 05:30:15;;;;;;;;;3.00;3.00;;;;;10.35;65.35;101292.56;5013670;28;45639;-57
2022/11/05 05:32:40;;;;;;;;;4.25;3.75;;;;;10.34;66.28;101290.06;5014602;28;45570;-57
2022/11/05 05:35:06;;;;;;;;;7.25;5.25;;;;;9.96;65.87;101228.91;4994626;28;46444;-57
2022/11/05 05:37:32;;;;;;;;;7.00;7.00;;;;;10.34;65.42;101292.78;4993800;28;45281;-57
2022/11/05 05:39:57;;;;;;;;;5.50;4.25;;;;;10.32;66.10;101279.25;4994877;28;45298;-57
2022/11/05 05:42:23;;;;;;;;;5.00;4.00;;;;;10.36;66.06;101287.94;4995413;28;45350;-57
2022/11/05 05:44:48;;;;;;;;;6.25;6.25;;;;;10.30;65.92;101279.44;4994789;28;45469;-58
2022/11/05 05:47:14;;;;;;;;;8.75;5.00;;;;;10.32;66.25;101282.00;4994948;28;45315;-58
2022/11/05 05:49:39;;;;;;;;;4.75;3.25;;;;;10.01;66.11;101245.63;4994587;28;45259;-60
2022/11/05 05:52:05;;;;;;;;;6.00;5.75;;;;;9.82;65.45;101218.88;4995046;28;45354;-57
2022/11/05 05:54:30;;;;;;;;;4.00;4.00;;;;;10.27;65.68;101290.84;4993369;28;45385;-57
2022/11/05 05:56:56;;;;;;;;;4.00;3.00;;;;;9.48;65.41;101152.72;4994699;28;45392;-58
2022/11/05 05:59:22;;;;;;;;;5.20;4.40;;;;;10.25;65.12;101286.59;4995134;28;45496;-57
2022/11/05 06:01:47;;;;;;;;;3.00;2.00;;;;;10.21;66.09;101279.78;4996884;28;45664;-58
2022/11/05 06:04:13;;;;;;;;;3.50;3.50;;;;;10.21;66.32;101290.75;4996571;28;45759;-57
2022/11/05 06:06:38;;;;;;;;;4.50;4.50;;;;;10.20;65.55;101289.06;4998219;28;45353;-58
2022/11/05 06:09:04;;;;;;;;;3.00;3.00;;;;;10.17;66.37;101299.38;4997957;28;45416;-56
2022/11/05 06:11:29;;;;;;;;;6.00;5.75;;;;;10.14;66.41;101305.25;4980574;28;45613;-57
2022/11/05 06:13:55;;;;;;;;;5.50;4.00;;;;;10.03;65.95;101289.31;4980209;28;46673;-57
2022/11/05 06:16:20;;;;;;;;;3.75;3.75;;;;;10.01;67.14;101284.03;4980051;28;45683;-58
2022/11/05 06:18:46;;;;;;;;;3.75;3.75;;;;;10.12;65.77;101307.34;4997878;28;45314;-58
2022/11/05 06:21:13;;;;;;;;;9.00;6.50;;;;;10.08;66.58;101297.81;4998222;28;45284;-56
2022/11/05 06:23:39;;;;;;;;;5.40;3.60;;;;;10.15;66.29;101315.19;4997569;28;45308;-58
2022/11/05 06:26:07;;;;;;;;;4.40;4.40;;;;;10.12;66.49;101307.34;4997543;28;45216;-58
2022/11/05 06:28:32;;;;;;;;;3.00;3.00;;;;;10.11;65.76;101313.03;4997809;28;45405;-57
2022/11/05 06:30:58;;;;;;;;;4.25;4.25;;;;;10.08;66.32;101305.19;4996676;28;45420;-56
2022/11/05 06:33:23;;;;;;;;;5.00;5.00;;;;;10.11;66.40;101310.28;5003064;28;46546;-58
2022/11/05 06:35:49;;;;;;;;;8.25;4.00;;;;;10.10;66.89;101314.94;5017214;28;45433;-57
2022/11/05 06:38:14;;;;;;;;;5.00;5.00;;;;;10.03;66.57;101300.28;5018191;28;45342;-57
2022/11/05 06:40:40;;;;;;;;;3.00;3.00;;;;;10.08;65.66;101321.66;5017722;28;45378;-57
2022/11/05 06:43:05;;;;;;;;;4.25;3.75;;;;;9.66;67.01;101277.53;5017490;28;46286;-57
2022/11/05 06:45:31;;;;;;;;;5.50;3.75;;;;;9.89;66.88;101316.59;5017552;28;45435;-57
2022/11/05 06:47:57;;;;;;;;;5.00;4.00;;;;;9.97;67.24;101310.13;4975717;28;45661;-55
2022/11/05 06:50:23;;;;;;;;;4.50;3.50;;;;;10.03;66.27;101311.25;5017820;28;45762;-55
2022/11/05 06:53:06;;;;;;;;;2.60;2.60;;;;;10.07;66.96;101318.03;5017365;28;45360;-56
2022/11/05 06:55:32;;;;;;;;;4.40;3.20;;;;;10.11;65.68;101324.84;5017460;28;45222;-57
2022/11/05 06:57:57;;;;;;;;;3.00;3.00;;;;;10.13;66.25;101325.50;5016041;28;45746;-59
2022/11/05 07:00:23;;;;;;;;;4.50;4.50;;;;;10.02;66.31;101310.41;5016083;28;45387;-56
2022/11/05 07:02:48;;;;;;;;;5.50;4.25;;;;;9.95;65.93;101311.38;5015780;28;47044;-56
2022/11/05 07:05:14;;;;;;;;;8.50;5.75;;;;;10.10;66.57;101320.41;5016026;28;45397;-55
2022/11/05 07:07:40;;;;;;;;;6.50;4.25;;;;;9.88;66.70;101281.16;5017582;28;45307;-56
2022/11/05 07:10:07;;;;;;;;;8.00;5.25;;;;;10.14;66.33;101329.94;5017469;28;45317;-58
2022/11/05 07:12:32;;;;;;;;;8.80;4.80;;;;;10.18;66.03;101335.88;5016813;28;46683;-56
2022/11/05 07:14:57;;;;;;;;;3.00;3.00;;;;;10.20;65.76;101339.31;5016858;28;45420;-58
2022/11/05 07:17:23;;;;;;;;;5.25;4.00;;;;;9.94;65.64;101290.47;5017232;28;45459;-57
2022/11/05 07:19:48;;;;;;;;;3.50;2.50;;;;;10.14;66.24;101321.72;5017111;28;45401;-58
2022/11/05 07:22:14;;;;;;;;;3.00;3.00;;;;;9.99;65.68;101297.06;5016785;28;46083;-56
2022/11/05 07:24:40;;;;;;;;;5.50;2.75;;;;;10.27;66.30;101336.63;5015672;28;45321;-57
2022/11/05 07:27:05;;;;;;;;;3.75;3.75;;;;;9.98;66.13;101281.66;5015257;28;45305;-56
2022/11/05 07:29:31;;;;;;;;;3.00;3.00;;;;;10.32;66.28;101331.41;5016865;28;45542;-57
2022/11/05 07:31:56;;;;;;;;;7.25;4.00;;;;;9.97;65.98;101273.66;5016477;28;45500;-57
2022/11/05 07:34:21;;;;;;;;;3.75;3.00;;;;;10.10;65.21;101281.16;5016391;28;45361;-57
2022/11/05 07:36:47;;;;;;;;;7.25;4.75;;;;;10.45;66.01;101338.91;5016942;28;45255;-57
2022/11/05 07:39:12;;;;;;;;;7.25;4.00;;;;;10.38;64.92;101330.59;5016654;28;45214;-57
2022/11/05 07:41:38;;;;;;;;;6.75;5.00;;;;;10.50;65.29;101349.31;5016505;28;46763;-58
2022/11/05 07:44:04;;;;;;;;;3.00;3.00;;;;;10.54;64.90;101356.97;5016350;28;45357;-59
2022/11/05 07:46:29;;;;;;;;;7.25;5.00;;;;;10.55;65.43;101353.19;5016680;28;45420;-59
2022/11/05 07:48:55;;;;;;;;;4.00;4.00;;;;;10.56;65.42;101354.88;5016439;28;45340;-58
2022/11/05 07:51:21;;;;;;;;;6.75;3.00;;;;;10.60;65.40;101355.31;5016311;28;46438;-59
2022/11/05 07:53:47;;;;;;;;;4.75;3.75;;;;;10.61;65.11;101351.53;5014980;28;45348;-54
2022/11/05 07:56:13;;;;;;;;;3.40;3.40;;;;;10.63;64.96;101352.19;5016202;28;45351;-57
2022/11/05 07:58:38;;;;;;;;;1.00;1.00;;;;;10.63;64.71;101354.94;5016372;28;45696;-54
2022/11/05 08:01:05;;;;;;;;;4.50;3.00;;;;;10.63;64.32;101349.47;5014418;28;47233;-57
2022/11/05 08:03:31;;;;;;;;;4.80;3.60;;;;;10.54;64.66;101329.53;5015441;28;45382;-54
2022/11/05 08:05:57;;;;;;;;;4.00;3.00;;;;;10.71;64.77;101352.06;5013524;28;45585;-54
2022/11/05 08:08:22;;;;;;;;;5.75;4.25;;;;;10.75;64.46;101357.13;5015059;28;45552;-54
2022/11/05 08:10:48;;;;;;;;;3.00;3.00;;;;;10.74;65.03;101356.31;5015824;28;46433;-56
2022/11/05 08:13:13;;;;;;;;;8.75;7.75;;;;;10.75;63.82;101358.00;5016030;28;45362;-55
2022/11/05 08:15:39;;;;;;;;;4.75;3.25;;;;;10.78;64.39;101357.59;5015805;28;45362;-54
2022/11/05 08:18:07;;;;;;;;;12.20;9.40;;;;;10.79;63.85;101351.03;5016703;28;45557;-56
2022/11/05 08:20:33;;;;;;;;;10.80;5.80;;;;;10.87;64.53;101355.56;5016726;28;45904;-57
2022/11/05 08:22:58;;;;;;;;;4.60;4.60;;;;;10.89;64.15;101358.94;5016857;28;45297;-54
2022/11/05 08:25:24;;;;;;;;;10.00;8.50;;;;;10.86;64.59;101364.84;5015447;28;45350;-53
2022/11/05 08:28:00;;;;;;;;;4.25;4.25;;;;;10.82;64.36;101369.03;5016053;28;45345;-53
2022/11/05 08:30:26;;;;;;;;;4.40;4.40;;;;;10.79;64.51;101355.69;5015126;28;45368;-55
2022/11/05 08:32:55;;;;;;;;;9.00;7.00;;;;;10.88;64.77;101364.66;5015557;28;45581;-55
2022/11/05 08:35:20;;;;;;;;;7.00;7.00;;;;;10.85;65.19;101354.91;5015496;28;45309;-56
2022/11/05 08:37:46;;;;;;;;;6.50;5.00;;;;;10.91;64.92;101367.00;5015040;28;45389;-55
2022/11/05 08:40:11;;;;;;;;;5.00;4.00;;;;;10.78;64.83;101370.47;5015674;28;46129;-54
2022/11/05 08:42:37;;;;;;;;;20.75;17.50;;;;;10.83;64.28;101370.72;5015501;28;45428;-58
2022/11/05 08:45:03;;;;;;;;;8.50;5.25;;;;;10.90;64.92;101368.91;5015608;28;45475;-57
2022/11/05 08:47:28;;;;;;;;;6.25;5.00;;;;;10.92;63.62;101371.44;5016062;28;45481;-57
2022/11/05 08:49:54;;;;;;;;;5.25;5.25;;;;;10.90;64.53;101366.16;5015233;28;45342;-54
2022/11/05 08:52:19;;;;;;;;;9.00;7.25;;;;;11.07;63.79;101376.84;5015195;28;45235;-56
2022/11/05 08:54:45;;;;;;;;;7.75;6.25;;;;;11.12;64.19;101371.59;4981915;28;45389;-54
2022/11/05 08:57:10;;;;;;;;;5.25;5.00;;;;;11.04;63.83;101344.28;5015810;28;45257;-54
2022/11/05 08:59:36;;;;;;;;;6.50;6.50;;;;;11.00;63.57;101326.50;5014925;28;46778;-53
2022/11/05 09:02:01;;;;;;;;;9.25;6.50;;;;;11.23;63.10;101364.69;5014136;28;45366;-58
2022/11/05 09:04:27;;;;;;;;;8.25;6.50;;;;;11.48;63.40;101387.03;5014625;28;45336;-55
2022/11/05 09:06:52;;;;;;;;;2.75;2.25;;;;;11.55;62.71;101383.47;5015290;28;45207;-56
2022/11/05 09:09:18;;;;;;;;;4.25;3.00;;;;;11.59;62.56;101385.63;5014644;28;45267;-54
2022/11/05 09:11:43;;;;;;;;;3.00;3.00;;;;;11.65;63.04;101379.31;5014489;28;45349;-50
2022/11/05 09:14:09;;;;;;;;;8.50;5.00;;;;;11.69;63.17;101379.75;5014954;28;45294;-51
2022/11/05 09:16:35;;;;;;;;;3.75;3.75;;;;;11.50;62.69;101332.72;5015263;28;45521;-53
2022/11/05 09:19:03;;;;;;;;;7.60;2.40;;;;;11.85;62.60;101380.47;5013434;28;46027;-51
2022/11/05 09:21:28;;;;;;;;;4.00;2.20;;;;;11.92;62.24;101373.09;5014890;28;45467;-54
2022/11/05 09:23:54;;;;;;;;;2.00;2.00;;;;;11.94;61.74;101359.97;5014911;28;45392;-56
2022/11/05 09:26:19;;;;;;;;;3.00;2.00;;;;;12.11;61.71;101365.16;5014277;28;45308;-55
2022/11/05 09:28:45;;;;;;;;;1.25;0.00;;;;;12.14;61.20;101361.97;5014965;28;46021;-52
2022/11/05 09:31:11;;;;;;;;;3.50;3.50;;;;;12.13;61.14;101349.28;5015304;28;45282;-55
2022/11/05 09:33:37;;;;;;;;;1.00;1.00;;;;;12.05;60.56;101325.53;5013303;28;45347;-56
2022/11/05 09:36:03;;;;;;;;;3.60;2.00;;;;;12.30;60.67;101353.34;5014621;28;45504;-56
2022/11/05 09:38:29;;;;;;;;;2.20;2.00;;;;;12.44;60.73;101361.63;4997320;28;45368;-52
2022/11/05 09:41:00;;;;;;;;;1.60;1.60;;;;;12.49;60.56;101361.00;4996831;28;45348;-51
2022/11/05 09:43:55;;;;;;;;;2.80;1.00;;;;;12.30;60.03;101324.97;5014129;28;45359;-55
2022/11/05 09:46:24;;;;;;;;;2.60;2.20;;;;;11.77;59.71;101228.34;5013836;28;45410;-55
2022/11/05 09:49:01;;;;;;;;;2.20;2.00;;;;;12.62;59.46;101358.25;5013464;28;45388;-52
2022/11/05 09:51:26;;;;;;;;;7.80;4.80;;;;;12.41;59.41;101324.34;4997194;28;45439;-54
2022/11/05 09:53:52;;;;;;;;;7.75;4.00;;;;;12.36;59.41;101326.88;5014954;28;45473;-54
2022/11/05 09:56:23;;;;;;;;;2.00;2.00;;;;;12.27;59.48;101303.38;5013210;28;45619;-54
2022/11/05 09:59:18;;;;;;;;;1.60;1.60;;;;;12.64;59.43;101356.13;4984329;28;46275;-56
2022/11/05 10:01:44;;;;;;;;;3.60;1.00;;;;;12.76;59.46;101378.41;5008133;28;45736;-55
2022/11/05 10:04:30;;;;;;;;;17.20;15.40;;;;;12.79;59.69;101377.09;5012251;28;45334;-52
2022/11/05 10:06:58;;;;;;;;;5.60;3.80;;;;;12.81;59.34;101370.31;5011247;28;45395;-54
2022/11/05 10:09:46;;;;;;;;;3.80;2.20;;;;;12.86;59.51;101370.53;5011157;28;46458;-55
2022/11/05 10:12:35;;;;;;;;;2.00;2.00;;;;;12.66;58.65;101364.19;5010758;28;45452;-55
2022/11/05 10:15:15;;;;;;;;;6.20;6.20;;;;;12.66;59.41;101370.56;5011310;28;45429;-54
2022/11/05 10:18:03;;;;;;;;;3.60;2.60;;;;;12.65;59.40;101360.56;4994952;28;45526;-53
2022/11/05 10:20:38;;;;;;;;;2.60;2.60;;;;;12.36;59.28;101295.75;4980199;28;46592;-52
2022/11/05 10:23:13;;;;;;;;;2.00;2.00;;;;;12.75;59.44;101360.16;4993804;28;45840;-51
2022/11/05 10:25:41;;;;;;;;;3.00;3.00;;;;;12.50;58.91;101322.25;5011708;28;45433;-52
2022/11/05 10:28:07;;;;;;;;;3.60;2.60;;;;;12.78;59.17;101361.63;4993952;28;45463;-56
2022/11/05 10:30:32;;;;;;;;;3.00;2.00;;;;;12.81;59.29;101361.22;5011413;28;46932;-53
2022/11/05 10:32:59;;;;;;;;;2.00;2.00;;;;;12.80;59.13;101359.53;5002562;28;45485;-54
2022/11/05 10:35:25;;;;;;;;;4.00;3.00;;;;;12.84;59.61;101369.06;4990587;28;45565;-55
2022/11/05 10:37:52;;;;;;;;;3.40;2.40;;;;;12.86;59.24;101372.47;4994034;28;45770;-56
2022/11/05 10:40:43;;;;;;;;;4.40;3.40;;;;;12.81;59.03;101366.75;5011466;28;46185;-54
2022/11/05 10:43:20;;;;;;;;;4.00;2.80;;;;;12.77;59.51;101368.22;4991237;28;45532;-52
2022/11/05 10:46:01;;;;;;;;;3.40;2.80;;;;;12.73;59.73;101371.41;4990343;28;45446;-53
2022/11/05 10:48:42;;;;;;;;;4.00;3.40;;;;;12.79;59.93;101382.63;4995078;28;45462;-55
2022/11/05 10:51:08;;;;;;;;;2.60;2.60;;;;;12.80;60.21;101376.91;4993191;28;45482;-56
2022/11/05 10:53:35;;;;;;;;;4.00;3.00;;;;;12.84;60.00;101372.69;4986541;28;45701;-53
2022/11/05 10:56:00;;;;;;;;;2.80;2.80;;;;;12.88;60.20;101376.69;4993719;28;45446;-55
2022/11/05 10:58:27;;;;;;;;;3.75;3.75;;;;;12.93;60.43;101375.22;4993694;28;45422;-51
2022/11/05 11:00:56;;;;;;;;;3.00;3.00;;;;;12.97;60.13;101373.72;5005559;28;47063;-56
2022/11/05 11:03:43;;;;;;;;;3.40;3.40;;;;;12.97;60.36;101382.00;5001060;28;45424;-54
2022/11/05 11:06:24;;;;;;;;;3.60;3.20;;;;;12.99;60.39;101377.13;5013776;28;45803;-52
2022/11/05 11:08:50;;;;;;;;;5.60;2.40;;;;;12.99;60.24;101372.47;5012308;28;45559;-56
2022/11/05 11:11:53;;;;;;;;;2.00;2.00;;;;;12.90;60.56;101357.19;5013229;28;46653;-56
2022/11/05 11:14:20;;;;;;;;;2.20;2.00;;;;;12.96;60.25;101361.03;4991255;28;45436;-58
2022/11/05 11:16:49;;;;;;;;;5.20;2.00;;;;;12.99;60.32;101361.44;5014397;28;45418;-56
2022/11/05 11:19:27;;;;;;;;;2.00;2.00;;;;;13.05;60.28;101365.25;5012626;28;45737;-54
2022/11/05 11:22:02;;;;;;;;;3.40;2.60;;;;;13.10;60.72;101357.19;5014108;28;46685;-57
2022/11/05 11:24:28;;;;;;;;;2.00;2.00;;;;;13.11;60.90;101358.88;5012169;28;46232;-52
2022/11/05 11:26:53;;;;;;;;;4.50;4.00;;;;;12.88;60.96;101320.75;5014620;28;45456;-52
2022/11/05 11:29:23;;;;;;;;;4.50;2.25;;;;;13.17;60.43;101359.09;4996626;28;45536;-53
2022/11/05 11:31:48;;;;;;;;;4.80;4.60;;;;;13.20;60.65;101354.00;4993248;28;45437;-55
2022/11/05 11:34:24;;;;;;;;;4.00;4.00;;;;;13.22;60.71;101351.00;4992485;28;45452;-57
2022/11/05 11:36:52;;;;;;;;;3.80;3.60;;;;;12.72;60.49;101272.47;5013295;28;45471;-55
2022/11/05 11:39:21;;;;;;;;;5.00;3.00;;;;;13.22;60.73;101351.00;4980692;28;45416;-54
2022/11/05 11:41:50;;;;;;;;;8.80;4.40;;;;;13.23;61.02;101348.03;5013129;28;45822;-57
2022/11/05 11:44:19;;;;;;;;;5.00;4.80;;;;;13.41;60.81;101344.59;4998375;28;45508;-54
2022/11/05 11:46:49;;;;;;;;;4.00;2.60;;;;;13.57;60.20;101333.34;4994974;28;45531;-53
2022/11/05 11:49:36;;;;;;;;;3.60;3.60;;;;;13.63;59.38;101335.22;4997582;28;45495;-56
2022/11/05 11:52:04;;;;;;;;;3.40;1.60;;;;;13.71;59.65;101334.16;5028694;28;46867;-53
2022/11/05 11:54:31;;;;;;;;;5.80;3.20;;;;;13.86;59.08;101337.47;5001363;28;45507;-58
2022/11/05 11:56:57;;;;;;;;;3.60;3.00;;;;;13.85;58.79;101335.78;5013788;28;45463;-54
2022/11/05 11:59:27;;;;;;;;;3.75;2.00;;;;;13.85;58.59;101335.78;4990189;28;45393;-55
2022/11/05 12:02:34;;;;;;;;;3.40;3.20;;;;;13.86;58.70;101334.72;5012178;28;47444;-56
2022/11/05 12:05:05;;;;;;;;;2.80;2.80;;;;;13.85;58.21;101341.31;4994740;28;45701;-56
2022/11/05 12:08:07;;;;;;;;;4.40;3.80;;;;;13.84;58.98;101334.09;5008420;28;45433;-56
2022/11/05 12:11:20;;;;;;;;;5.00;2.80;;;;;14.02;59.03;101329.75;4983770;28;45799;-56
2022/11/05 12:13:55;;;;;;;;;5.00;4.00;;;;;14.09;58.33;101330.56;4933644;28;45506;-58
2022/11/05 12:17:06;;;;;;;;;4.60;3.00;;;;;13.91;58.41;101314.72;4988376;28;45472;-58
2022/11/05 12:19:55;;;;;;;;;5.00;3.00;;;;;13.79;58.72;101317.34;4935130;28;45359;-58
2022/11/05 12:22:44;;;;;;;;;2.40;2.40;;;;;13.72;58.86;101319.28;4908235;28;45370;-60